Terminal Aerodrome Forecast
Issued by NWS

Home | Current Version | Previous Version | Text Only | Print | Product List | Glossary On
Versions: 1 2 3 4 5 6 7 8 9 10 11 12 13 14 15
584
FTUS46 KSTO 052107 AAA
TAFRDD
TAF AMD
KRDD 052107Z 0521/0618 17012KT P6SM VCSH SCT045 BKN100
     FM060400 VRB05KT P6SM BKN100=

USA.gov is the U.S. government's official web portal to all federal, state and local government web resources and services.